Time;durP1;ratioP1;P1;durP2;ratioP2;P2;SDS_P1;SDS_P2;PMS_P1;PMS_P2;Temp;Humidity;BMP_temperature;BMP_pressure;BME280_temperature;BME280_humidity;BME280_pressure;Samples;Min_cycle;Max_cycle;Signal;HPM_P1;HPM_P2
2023/06/18 00:00:26;;;;;;;13.33;11.93;;;16.40;56.50;;;;;;5115451;28;20437;-67
2023/06/18 00:02:53;;;;;;;18.30;11.37;;;16.40;56.30;;;;;;5113671;28;20444;-67
2023/06/18 00:05:20;;;;;;;11.87;10.67;;;16.40;56.40;;;;;;5115146;28;20825;-68
2023/06/18 00:07:49;;;;;;;10.37;9.27;;;16.30;56.50;;;;;;5114933;28;20465;-67
2023/06/18 00:10:16;;;;;;;13.57;9.90;;;16.20;56.70;;;;;;5115157;28;20436;-68
2023/06/18 00:12:43;;;;;;;10.80;9.67;;;16.20;56.50;;;;;;5115056;28;20500;-68
2023/06/18 00:15:12;;;;;;;12.33;10.97;;;16.10;56.60;;;;;;5114784;28;20469;-68
2023/06/18 00:17:39;;;;;;;12.00;10.80;;;16.00;56.90;;;;;;5105635;28;20433;-67
2023/06/18 00:20:10;;;;;;;12.07;10.60;;;16.00;57.10;;;;;;5094685;28;20434;-67
2023/06/18 00:22:38;;;;;;;16.27;9.60;;;16.00;57.20;;;;;;5094939;28;20464;-67
2023/06/18 00:25:06;;;;;;;12.00;10.80;;;15.90;57.30;;;;;;5093857;28;20430;-67
2023/06/18 00:27:33;;;;;;;11.70;9.97;;;15.90;57.30;;;;;;5094527;28;20418;-68
2023/06/18 00:30:00;;;;;;;11.67;10.40;;;15.90;57.20;;;;;;5094404;28;20915;-67
2023/06/18 00:32:29;;;;;;;11.03;9.80;;;15.90;57.20;;;;;;5093909;28;20491;-68
2023/06/18 00:34:56;;;;;;;10.70;8.67;;;15.90;57.40;;;;;;5094698;28;20442;-67
2023/06/18 00:37:27;;;;;;;10.77;9.67;;;15.90;57.10;;;;;;5094009;28;20977;-67
2023/06/18 00:39:54;;;;;;;11.37;9.60;;;15.90;57.00;;;;;;5094313;28;20445;-68
2023/06/18 00:42:28;;;;;;;12.50;9.00;;;15.80;57.30;;;;;;5093814;28;20943;-68
2023/06/18 00:44:55;;;;;;;10.83;8.40;;;15.70;57.30;;;;;;5101539;28;20429;-68
2023/06/18 00:47:23;;;;;;;11.53;10.33;;;15.70;57.60;;;;;;5114475;28;20564;-67
2023/06/18 00:49:52;;;;;;;9.90;8.90;;;15.70;57.40;;;;;;5114199;28;20433;-67
2023/06/18 00:52:23;;;;;;;11.30;9.63;;;15.60;57.50;;;;;;5114432;28;20453;-67
2023/06/18 00:54:51;;;;;;;11.10;8.90;;;15.50;57.80;;;;;;5114506;28;20767;-68
2023/06/18 00:57:21;;;;;;;14.10;9.20;;;15.50;57.90;;;;;;5114340;28;20436;-67
2023/06/18 00:59:53;;;;;;;12.70;9.20;;;15.50;58.00;;;;;;5113664;28;20444;-67
2023/06/18 01:02:25;;;;;;;10.27;9.27;;;15.40;58.10;;;;;;5114336;28;20429;-68
2023/06/18 01:04:55;;;;;;;9.93;8.87;;;15.40;58.20;;;;;;5113958;28;20421;-68
2023/06/18 01:07:23;;;;;;;12.47;9.47;;;15.30;58.20;;;;;;5114193;28;20894;-67
2023/06/18 01:09:53;;;;;;;9.70;8.70;;;15.30;58.30;;;;;;5114224;28;20494;-67
2023/06/18 01:12:21;;;;;;;9.93;8.90;;;15.20;58.40;;;;;;5098322;28;20468;-67
2023/06/18 01:14:51;;;;;;;12.10;9.90;;;15.20;58.50;;;;;;5105127;28;20445;-67
2023/06/18 01:17:20;;;;;;;10.53;9.53;;;15.10;58.80;;;;;;5114101;28;20444;-68
2023/06/18 01:19:51;;;;;;;10.63;8.63;;;15.00;58.90;;;;;;5114277;28;20501;-67
2023/06/18 01:22:30;;;;;;;11.37;9.40;;;15.00;59.00;;;;;;5113690;28;20558;-67
2023/06/18 01:24:58;;;;;;;11.90;9.03;;;15.00;59.30;;;;;;5113707;28;20957;-68
2023/06/18 01:27:28;;;;;;;10.00;8.40;;;14.90;59.30;;;;;;5113922;28;20526;-68
2023/06/18 01:29:57;;;;;;;10.60;8.40;;;14.90;59.40;;;;;;5113459;28;20444;-67
2023/06/18 01:32:24;;;;;;;13.60;8.50;;;14.90;59.50;;;;;;5114117;28;20497;-67
2023/06/18 01:34:53;;;;;;;11.70;7.13;;;14.90;59.10;;;;;;5113827;28;20440;-67
2023/06/18 01:37:33;;;;;;;11.30;8.33;;;14.90;58.90;;;;;;5116235;28;20447;-67
2023/06/18 01:40:10;;;;;;;11.93;8.77;;;14.80;58.50;;;;;;5098332;28;20421;-67
2023/06/18 01:42:43;;;;;;;10.10;8.50;;;14.80;58.30;;;;;;5097595;28;20891;-68
2023/06/18 01:45:16;;;;;;;10.03;7.80;;;14.80;58.30;;;;;;5097245;28;20479;-67
2023/06/18 01:47:46;;;;;;;9.53;7.27;;;14.80;58.40;;;;;;5097209;28;20483;-67
2023/06/18 01:50:14;;;;;;;9.57;7.60;;;14.80;58.00;;;;;;5097539;28;20468;-67
2023/06/18 01:52:45;;;;;;;9.70;8.20;;;14.80;58.30;;;;;;5097486;28;20441;-67
2023/06/18 01:55:17;;;;;;;11.70;8.20;;;14.80;58.40;;;;;;5097131;28;20490;-68
2023/06/18 01:57:48;;;;;;;11.90;8.47;;;14.80;58.50;;;;;;5097006;28;20512;-71
2023/06/18 02:00:16;;;;;;;9.40;8.17;;;14.70;58.70;;;;;;5117742;28;20464;-67
2023/06/18 02:02:43;;;;;;;9.83;8.50;;;14.70;59.70;;;;;;5117735;28;20436;-67
2023/06/18 02:05:10;;;;;;;9.53;8.07;;;14.60;59.30;;;;;;5117585;28;20851;-67
2023/06/18 02:07:37;;;;;;;11.10;8.40;;;14.50;59.70;;;;;;5117647;28;20475;-68
2023/06/18 02:10:06;;;;;;;11.63;9.20;;;14.40;60.00;;;;;;5103952;28;20446;-68
2023/06/18 02:12:34;;;;;;;10.97;8.40;;;14.30;59.90;;;;;;5096754;28;20454;-68
2023/06/18 02:15:01;;;;;;;8.85;7.93;;;14.30;60.20;;;;;;5096566;28;20437;-68
2023/06/18 02:17:29;;;;;;;9.63;8.63;;;14.20;60.10;;;;;;5096780;28;20194;-67
2023/06/18 02:19:56;;;;;;;10.80;8.50;;;14.20;60.10;;;;;;5096798;28;20756;-68
2023/06/18 02:22:24;;;;;;;12.60;9.53;;;14.10;60.10;;;;;;5096590;28;20529;-67
2023/06/18 02:24:51;;;;;;;12.20;9.13;;;14.00;60.40;;;;;;5096592;28;20447;-67
2023/06/18 02:27:19;;;;;;;10.97;9.20;;;14.00;60.60;;;;;;5113610;28;20459;-67
2023/06/18 02:29:47;;;;;;;14.60;9.30;;;13.90;61.10;;;;;;5110213;28;20437;-68
2023/06/18 02:32:19;;;;;;;10.50;8.80;;;13.90;61.30;;;;;;5111200;28;20800;-67
2023/06/18 02:34:46;;;;;;;10.50;9.27;;;13.90;61.50;;;;;;5114658;28;20424;-67
2023/06/18 02:37:13;;;;;;;11.57;9.50;;;13.90;61.40;;;;;;5117251;28;20439;-68
2023/06/18 02:39:41;;;;;;;10.20;8.20;;;13.80;61.50;;;;;;5117015;28;20436;-67
2023/06/18 02:42:09;;;;;;;9.93;8.87;;;13.80;61.70;;;;;;5116938;28;20239;-68
2023/06/18 02:44:41;;;;;;;12.07;9.25;;;13.80;61.90;;;;;;5116861;28;20526;-68
2023/06/18 02:47:09;;;;;;;10.27;8.77;;;13.70;61.60;;;;;;5116865;28;20210;-67
2023/06/18 02:49:36;;;;;;;13.90;9.80;;;13.70;61.90;;;;;;5099393;28;20445;-68
2023/06/18 02:52:04;;;;;;;11.87;9.20;;;13.70;61.90;;;;;;5096364;28;20498;-67
2023/06/18 02:54:34;;;;;;;13.37;8.70;;;13.70;62.10;;;;;;5096152;28;20488;-67
2023/06/18 02:57:01;;;;;;;12.50;8.77;;;13.60;62.30;;;;;;5095911;28;20984;-68
2023/06/18 02:59:28;;;;;;;9.67;8.10;;;13.60;62.90;;;;;;5096089;28;20524;-68
2023/06/18 03:01:57;;;;;;;12.47;8.80;;;13.60;63.10;;;;;;5095342;28;20440;-67
2023/06/18 03:04:24;;;;;;;10.40;8.98;;;13.70;63.30;;;;;;5110927;28;20444;-67
2023/06/18 03:06:51;;;;;;;10.43;8.73;;;13.70;63.60;;;;;;5116079;28;20252;-68
2023/06/18 03:09:18;;;;;;;10.63;8.67;;;13.70;63.70;;;;;;5116167;28;20921;-68
2023/06/18 03:11:45;;;;;;;9.63;7.90;;;13.70;63.30;;;;;;5116414;28;20438;-67
2023/06/18 03:14:12;;;;;;;9.98;8.73;;;13.60;62.10;;;;;;5116390;28;20492;-67
2023/06/18 03:16:39;;;;;;;10.05;8.40;;;13.50;62.80;;;;;;5112857;28;20221;-68
2023/06/18 03:19:07;;;;;;;11.60;8.53;;;13.40;63.30;;;;;;5101569;28;20190;-67
2023/06/18 03:21:35;;;;;;;10.50;8.20;;;13.40;63.00;;;;;;5115387;28;20465;-68
2023/06/18 03:24:02;;;;;;;12.75;8.65;;;13.40;62.00;;;;;;5116019;28;20611;-67
2023/06/18 03:26:30;;;;;;;12.00;9.38;;;13.30;62.20;;;;;;5115753;28;20251;-67
2023/06/18 03:28:58;;;;;;;10.43;8.68;;;13.20;63.30;;;;;;5115652;28;20189;-68
2023/06/18 03:31:26;;;;;;;9.25;7.57;;;13.10;64.10;;;;;;5106872;28;20236;-69
2023/06/18 03:33:53;;;;;;;9.60;8.25;;;13.10;64.90;;;;;;5095483;28;20277;-68
2023/06/18 03:36:22;;;;;;;10.65;8.70;;;13.10;65.10;;;;;;5095292;28;20190;-67
2023/06/18 03:38:53;;;;;;;13.82;10.05;;;13.10;65.10;;;;;;5095201;28;20226;-68
2023/06/18 03:41:20;;;;;;;15.27;9.50;;;13.10;64.90;;;;;;5095146;28;20178;-67
2023/06/18 03:43:47;;;;;;;9.85;8.85;;;13.10;64.90;;;;;;5095255;28;20179;-67
2023/06/18 03:46:14;;;;;;;8.80;7.75;;;13.10;65.00;;;;;;5110739;28;20262;-67
2023/06/18 03:48:46;;;;;;;12.10;9.25;;;13.20;64.70;;;;;;5115303;28;20214;-68
2023/06/18 03:51:13;;;;;;;10.60;8.88;;;13.20;64.50;;;;;;5115691;28;20182;-67
2023/06/18 03:53:41;;;;;;;11.32;8.40;;;13.10;64.50;;;;;;5115199;28;20185;-67
2023/06/18 03:56:09;;;;;;;11.30;8.57;;;13.10;64.70;;;;;;5115550;28;20225;-67
2023/06/18 03:58:36;;;;;;;13.43;9.48;;;13.10;65.80;;;;;;5115396;28;20501;-67
2023/06/18 04:01:03;;;;;;;11.90;8.68;;;13.10;65.00;;;;;;5113665;28;20185;-70
2023/06/18 04:03:32;;;;;;;10.80;9.02;;;13.10;65.00;;;;;;5115488;28;20228;-68
2023/06/18 04:05:59;;;;;;;11.30;8.80;;;13.00;65.30;;;;;;5115441;28;20648;-67
2023/06/18 04:08:27;;;;;;;12.15;8.65;;;13.00;65.50;;;;;;5115261;28;20576;-68
2023/06/18 04:10:55;;;;;;;11.43;8.75;;;13.00;65.90;;;;;;5115456;28;20280;-68
2023/06/18 04:13:23;;;;;;;9.88;8.10;;;13.10;65.70;;;;;;5114379;28;20190;-69
2023/06/18 04:15:50;;;;;;;12.20;8.85;;;13.20;65.70;;;;;;5094924;28;20595;-67
2023/06/18 04:18:18;;;;;;;13.60;9.85;;;13.20;65.40;;;;;;5094471;28;20230;-68
2023/06/18 04:20:45;;;;;;;11.93;9.95;;;13.20;65.00;;;;;;5094587;28;20263;-68
2023/06/18 04:23:13;;;;;;;9.90;8.35;;;13.40;65.20;;;;;;5094995;28;20675;-68
2023/06/18 04:25:40;;;;;;;10.30;7.88;;;13.40;64.70;;;;;;5094422;28;20214;-67
2023/06/18 04:28:09;;;;;;;11.20;8.23;;;13.50;64.90;;;;;;5093892;28;20306;-69
2023/06/18 04:30:36;;;;;;;11.25;8.77;;;13.50;65.10;;;;;;5094555;28;20477;-67
2023/06/18 04:33:03;;;;;;;12.70;8.80;;;13.60;64.40;;;;;;5094245;28;20671;-67
2023/06/18 04:35:30;;;;;;;10.00;8.73;;;13.70;64.90;;;;;;5094220;28;20235;-68
2023/06/18 04:38:02;;;;;;;11.00;8.37;;;13.80;65.70;;;;;;5094447;28;20191;-67
2023/06/18 04:40:29;;;;;;;11.40;9.57;;;13.80;65.00;;;;;;5094572;28;20429;-67
2023/06/18 04:42:56;;;;;;;11.30;8.70;;;13.90;64.50;;;;;;5094654;28;20448;-67
2023/06/18 04:45:24;;;;;;;11.93;9.60;;;13.90;63.80;;;;;;5094254;28;20433;-68
2023/06/18 04:47:52;;;;;;;9.30;8.10;;;13.90;63.80;;;;;;5093933;28;20476;-67
2023/06/18 04:50:23;;;;;;;10.43;8.07;;;14.00;63.30;;;;;;5094347;28;20441;-68
2023/06/18 04:52:50;;;;;;;11.37;8.53;;;13.90;62.20;;;;;;5093934;28;20433;-68
2023/06/18 04:55:17;;;;;;;10.20;8.43;;;13.90;62.00;;;;;;5094181;28;20445;-67
2023/06/18 04:57:44;;;;;;;9.33;6.67;;;13.90;62.20;;;;;;5102242;28;20440;-68
2023/06/18 05:00:12;;;;;;;10.00;7.40;;;14.00;62.50;;;;;;5114403;28;20482;-68
2023/06/18 05:02:40;;;;;;;9.45;7.95;;;14.10;62.10;;;;;;5114682;28;20453;-67
2023/06/18 05:05:12;;;;;;;10.00;7.70;;;14.20;61.30;;;;;;5114432;28;20242;-68
2023/06/18 05:07:39;;;;;;;10.53;8.20;;;14.20;60.70;;;;;;5114046;28;21082;-67
2023/06/18 05:10:07;;;;;;;13.40;10.80;;;14.20;60.90;;;;;;5114304;28;20466;-68
2023/06/18 05:12:38;;;;;;;11.10;8.60;;;14.30;61.50;;;;;;5102587;28;20446;-68
2023/06/18 05:15:07;;;;;;;10.93;7.93;;;14.40;61.70;;;;;;5093611;28;20895;-67
2023/06/18 05:17:35;;;;;;;9.57;8.17;;;14.40;61.60;;;;;;5093956;28;20487;-67
2023/06/18 05:20:05;;;;;;;9.57;8.70;;;14.50;61.60;;;;;;5093918;28;20429;-68
2023/06/18 05:22:33;;;;;;;9.13;8.20;;;14.70;61.80;;;;;;5094049;28;20461;-67
2023/06/18 05:25:05;;;;;;;11.07;9.90;;;14.90;61.60;;;;;;5093887;28;20446;-67
2023/06/18 05:27:32;;;;;;;9.57;8.23;;;15.00;61.50;;;;;;5105074;28;20520;-67
2023/06/18 05:30:00;;;;;;;11.93;9.67;;;15.10;61.20;;;;;;5114129;28;20436;-68
2023/06/18 05:32:27;;;;;;;9.67;8.67;;;15.30;61.60;;;;;;5113800;28;20436;-68
2023/06/18 05:34:55;;;;;;;9.87;8.40;;;15.40;60.50;;;;;;5113754;28;20462;-67
2023/06/18 05:37:24;;;;;;;13.40;9.27;;;15.60;60.70;;;;;;5113757;28;20478;-68
2023/06/18 05:39:52;;;;;;;11.90;10.00;;;15.70;60.60;;;;;;5111285;28;20445;-68
2023/06/18 05:42:19;;;;;;;11.30;8.97;;;15.80;61.10;;;;;;5099668;28;20533;-69
2023/06/18 05:44:47;;;;;;;10.50;7.83;;;16.00;61.50;;;;;;5093551;28;20433;-68
2023/06/18 05:47:16;;;;;;;10.50;8.80;;;16.20;61.60;;;;;;5093149;28;20546;-68
2023/06/18 05:49:42;;;;;;;10.03;8.47;;;16.30;60.80;;;;;;5093501;28;20543;-67
2023/06/18 05:52:09;;;;;;;9.10;8.17;;;16.40;60.70;;;;;;5093519;28;20527;-68
2023/06/18 05:54:38;;;;;;;13.00;9.90;;;16.60;61.50;;;;;;5093503;28;20485;-68
2023/06/18 05:57:06;;;;;;;14.27;10.00;;;16.80;61.80;;;;;;5104670;28;20882;-67
2023/06/18 05:59:33;;;;;;;9.90;8.73;;;16.90;61.30;;;;;;5113737;28;20432;-67
2023/06/18 06:02:00;;;;;;;9.47;7.63;;;17.10;61.60;;;;;;5113777;28;20772;-68
2023/06/18 06:04:27;;;;;;;8.70;7.13;;;17.20;61.50;;;;;;5113456;28;21036;-67
2023/06/18 06:06:54;;;;;;;9.47;8.03;;;17.30;60.80;;;;;;5113671;28;20863;-67
2023/06/18 06:09:26;;;;;;;8.80;7.50;;;17.50;60.60;;;;;;5112178;28;20442;-67
2023/06/18 06:11:57;;;;;;;10.97;7.60;;;17.60;59.60;;;;;;5100971;28;20465;-69
2023/06/18 06:14:24;;;;;;;9.13;6.93;;;17.70;58.80;;;;;;5092978;28;20953;-68
2023/06/18 06:16:57;;;;;;;11.90;8.57;;;17.90;58.40;;;;;;5093396;28;20843;-68
2023/06/18 06:19:24;;;;;;;9.33;7.30;;;18.00;58.40;;;;;;5093347;28;20442;-68
2023/06/18 06:21:51;;;;;;;10.90;7.93;;;18.20;58.70;;;;;;5093119;28;21016;-67
2023/06/18 06:24:18;;;;;;;10.13;8.27;;;18.30;59.40;;;;;;5095306;28;20442;-68
2023/06/18 06:26:45;;;;;;;9.67;8.70;;;18.50;59.20;;;;;;5103200;28;21070;-69
2023/06/18 06:29:14;;;;;;;8.17;6.50;;;18.60;59.50;;;;;;5097063;28;20522;-67
2023/06/18 06:31:41;;;;;;;8.47;6.60;;;18.80;59.40;;;;;;5096949;28;20455;-67
2023/06/18 06:34:08;;;;;;;8.93;6.70;;;18.90;58.30;;;;;;5096869;28;20436;-68
2023/06/18 06:36:35;;;;;;;10.90;8.90;;;19.00;57.30;;;;;;5096507;28;20433;-68
2023/06/18 06:39:03;;;;;;;8.73;7.30;;;19.10;57.50;;;;;;5096728;28;20445;-67
2023/06/18 06:41:32;;;;;;;8.50;6.73;;;19.20;57.50;;;;;;5108912;28;20454;-68
2023/06/18 06:43:59;;;;;;;14.37;8.50;;;19.30;57.50;;;;;;5117036;28;20513;-68
2023/06/18 06:46:30;;;;;;;11.50;7.97;;;19.40;57.70;;;;;;5117143;28;20472;-68
2023/06/18 06:48:57;;;;;;;9.40;7.23;;;19.50;57.00;;;;;;5117041;28;20482;-68
2023/06/18 06:51:24;;;;;;;9.70;7.90;;;19.50;57.00;;;;;;5116614;28;20436;-67
2023/06/18 06:53:51;;;;;;;12.40;7.87;;;19.60;56.80;;;;;;5116888;28;20475;-68
2023/06/18 06:56:18;;;;;;;7.70;6.90;;;19.70;57.10;;;;;;5101708;28;20486;-68
2023/06/18 06:58:45;;;;;;;9.90;7.90;;;19.90;57.10;;;;;;5096341;28;20529;-68
2023/06/18 07:01:12;;;;;;;11.03;7.47;;;19.90;56.90;;;;;;5095987;28;20986;-67
2023/06/18 07:03:44;;;;;;;8.80;6.33;;;20.10;56.30;;;;;;5107978;28;20432;-68
2023/06/18 07:06:11;;;;;;;11.23;7.20;;;20.20;54.50;;;;;;5116353;28;20436;-68
2023/06/18 07:08:38;;;;;;;8.30;7.37;;;20.30;54.10;;;;;;5116536;28;20530;-68
2023/06/18 07:11:05;;;;;;;8.13;7.17;;;20.40;54.70;;;;;;5114894;28;20441;-67
2023/06/18 07:13:32;;;;;;;8.90;7.43;;;20.50;54.50;;;;;;5116133;28;20937;-67
2023/06/18 07:15:59;;;;;;;7.57;5.90;;;20.60;54.40;;;;;;5116432;28;20428;-68
2023/06/18 07:18:28;;;;;;;7.80;6.93;;;20.60;54.40;;;;;;5116095;28;20448;-67
2023/06/18 07:20:56;;;;;;;7.73;5.93;;;20.80;53.90;;;;;;5116019;28;20504;-68
2023/06/18 07:23:23;;;;;;;11.00;6.90;;;20.90;52.80;;;;;;5116244;28;20445;-68
2023/06/18 07:26:02;;;;;;;9.20;7.20;;;21.00;52.70;;;;;;5115670;28;20448;-68
2023/06/18 07:28:30;;;;;;;8.27;7.37;;;21.10;53.20;;;;;;5104163;28;20468;-67
2023/06/18 07:30:57;;;;;;;8.97;7.10;;;21.30;53.30;;;;;;5095397;28;20499;-67
2023/06/18 07:33:26;;;;;;;7.93;6.67;;;21.40;53.30;;;;;;5095475;28;20491;-68
2023/06/18 07:35:56;;;;;;;8.27;7.07;;;21.50;53.10;;;;;;5095416;28;20438;-67
2023/06/18 07:38:28;;;;;;;8.77;7.27;;;21.70;53.00;;;;;;5095378;28;20459;-67
2023/06/18 07:40:55;;;;;;;11.63;8.13;;;21.80;52.80;;;;;;5104902;28;20430;-68
2023/06/18 07:43:22;;;;;;;12.23;8.10;;;21.90;52.50;;;;;;5107247;28;20444;-69
2023/06/18 07:45:49;;;;;;;7.73;6.60;;;22.10;53.00;;;;;;5115119;28;20501;-67
2023/06/18 07:48:21;;;;;;;9.57;7.00;;;22.20;52.70;;;;;;5115110;28;20465;-68
2023/06/18 07:50:48;;;;;;;7.90;6.93;;;22.40;52.10;;;;;;5115754;28;20460;-68
2023/06/18 07:53:16;;;;;;;6.80;6.10;;;22.50;51.00;;;;;;5115279;28;20490;-67
2023/06/18 07:55:48;;;;;;;10.90;6.43;;;22.60;51.00;;;;;;5113645;28;20433;-72
2023/06/18 07:58:15;;;;;;;8.43;7.13;;;22.80;51.20;;;;;;5115186;28;20425;-68
2023/06/18 08:00:42;;;;;;;10.70;6.40;;;23.00;51.30;;;;;;5115425;28;20800;-67
2023/06/18 08:03:09;;;;;;;7.17;6.47;;;23.10;50.80;;;;;;5115128;28;20437;-68
2023/06/18 08:05:36;;;;;;;10.83;6.37;;;23.30;50.40;;;;;;5111116;28;20431;-68
2023/06/18 08:08:03;;;;;;;9.00;6.77;;;23.40;50.00;;;;;;5094627;28;21094;-68
2023/06/18 08:10:31;;;;;;;7.80;6.63;;;23.60;49.50;;;;;;5093272;28;20473;-68
2023/06/18 08:12:58;;;;;;;8.93;6.30;;;23.70;49.10;;;;;;5104908;28;20446;-69
2023/06/18 08:15:25;;;;;;;7.80;6.73;;;23.80;48.10;;;;;;5093997;28;20475;-69
2023/06/18 08:17:53;;;;;;;8.80;6.70;;;23.90;47.10;;;;;;5105164;28;20441;-68
2023/06/18 08:20:20;;;;;;;9.27;7.00;;;24.00;44.90;;;;;;5114028;28;20450;-68
2023/06/18 08:22:47;;;;;;;6.33;5.73;;;24.10;44.40;;;;;;5114462;28;20475;-68
2023/06/18 08:25:14;;;;;;;9.37;6.33;;;24.10;44.90;;;;;;5111691;28;20502;-68
2023/06/18 08:27:42;;;;;;;7.80;7.00;;;24.20;45.00;;;;;;5113803;28;20442;-68
2023/06/18 08:30:10;;;;;;;8.80;6.30;;;24.30;43.70;;;;;;5114318;28;20441;-68
2023/06/18 08:32:38;;;;;;;9.30;7.20;;;24.40;43.70;;;;;;5114349;28;20768;-67
2023/06/18 08:35:06;;;;;;;9.80;6.20;;;24.60;44.20;;;;;;5110051;28;20982;-68
2023/06/18 08:37:33;;;;;;;11.67;7.00;;;24.70;45.10;;;;;;5113730;28;20526;-68
2023/06/18 08:40:00;;;;;;;6.40;5.77;;;24.90;45.20;;;;;;5112034;28;20440;-68
2023/06/18 08:42:27;;;;;;;7.70;6.23;;;25.10;44.60;;;;;;5113553;28;20985;-68
2023/06/18 08:44:56;;;;;;;9.03;5.83;;;25.20;44.20;;;;;;5114332;28;20435;-68
2023/06/18 08:47:23;;;;;;;6.70;5.90;;;25.30;43.60;;;;;;5113030;28;20478;-68
2023/06/18 08:49:52;;;;;;;13.80;6.60;;;25.50;43.30;;;;;;5113377;28;20507;-68
2023/06/18 08:52:20;;;;;;;7.10;6.07;;;25.60;42.20;;;;;;5112868;28;20475;-69
2023/06/18 08:54:53;;;;;;;7.30;5.80;;;25.70;42.50;;;;;;5104298;28;20463;-70
2023/06/18 08:57:27;;;;;;;7.07;6.13;;;25.80;42.60;;;;;;5093290;28;20440;-68
2023/06/18 09:00:01;;;;;;;11.17;6.10;;;26.00;42.50;;;;;;5093101;28;20448;-68
2023/06/18 09:02:28;;;;;;;6.83;5.70;;;26.20;40.10;;;;;;5103150;28;20436;-68
2023/06/18 09:04:55;;;;;;;11.70;6.40;;;26.20;37.90;;;;;;5095652;28;20528;-69
2023/06/18 09:07:24;;;;;;;7.33;6.10;;;26.20;38.60;;;;;;5096989;28;20444;-72
2023/06/18 09:09:51;;;;;;;9.73;6.13;;;26.40;39.00;;;;;;5103894;28;21058;-68
2023/06/18 09:12:19;;;;;;;7.13;5.97;;;26.60;39.00;;;;;;5113503;28;20460;-68
2023/06/18 09:14:46;;;;;;;9.47;6.23;;;26.70;36.60;;;;;;5112628;28;20444;-69
2023/06/18 09:17:16;;;;;;;7.40;5.50;;;26.80;34.30;;;;;;5112023;28;20441;-67
2023/06/18 09:19:43;;;;;;;8.27;5.87;;;26.80;31.50;;;;;;5112039;28;20934;-68
2023/06/18 09:22:14;;;;;;;6.97;5.10;;;26.80;32.80;;;;;;5113317;28;21049;-68
2023/06/18 09:24:41;;;;;;;6.30;5.60;;;26.90;33.30;;;;;;5112762;28;20930;-68
2023/06/18 09:27:09;;;;;;;7.13;5.97;;;27.00;32.90;;;;;;5113230;28;20983;-68
2023/06/18 09:29:38;;;;;;;7.60;5.97;;;26.90;30.80;;;;;;5101353;28;20477;-69
2023/06/18 09:32:09;;;;;;;6.90;5.83;;;27.00;31.10;;;;;;5093114;28;20474;-69
2023/06/18 09:34:43;;;;;;;8.37;5.50;;;27.10;31.00;;;;;;5092833;28;20495;-67
2023/06/18 09:37:15;;;;;;;9.40;5.60;;;27.20;28.90;;;;;;5092889;28;20980;-68
2023/06/18 09:39:45;;;;;;;7.27;5.90;;;27.20;29.30;;;;;;5104988;28;20440;-68
2023/06/18 09:42:13;;;;;;;7.53;4.93;;;27.20;30.10;;;;;;5106148;28;20444;-68
2023/06/18 09:44:45;;;;;;;6.70;4.50;;;27.30;30.00;;;;;;5101051;28;21019;-68
2023/06/18 09:47:15;;;;;;;8.80;5.23;;;27.40;31.30;;;;;;5111091;28;20434;-67
2023/06/18 09:49:45;;;;;;;6.63;5.60;;;27.50;30.90;;;;;;5104391;28;20484;-68
2023/06/18 09:52:13;;;;;;;6.30;5.17;;;27.60;30.40;;;;;;5109622;28;20467;-68
2023/06/18 09:54:41;;;;;;;6.93;4.97;;;27.70;28.30;;;;;;5092812;28;20447;-67
2023/06/18 09:57:13;;;;;;;7.20;6.30;;;27.80;28.40;;;;;;5093528;28;20454;-68
2023/06/18 09:59:42;;;;;;;7.63;6.23;;;27.80;28.50;;;;;;5107607;28;20431;-67
2023/06/18 10:02:24;;;;;;;6.50;5.17;;;28.00;30.00;;;;;;5116721;28;20473;-68
2023/06/18 10:04:54;;;;;;;7.03;5.77;;;28.10;31.30;;;;;;5117338;28;20506;-68
2023/06/18 10:07:27;;;;;;;6.90;5.20;;;28.30;30.50;;;;;;5117225;28;20774;-67
2023/06/18 10:09:55;;;;;;;6.20;5.50;;;28.40;30.80;;;;;;5104061;28;20476;-68
2023/06/18 10:12:23;;;;;;;11.87;7.10;;;28.50;31.90;;;;;;5094675;28;20443;-68
2023/06/18 10:14:55;;;;;;;7.10;4.93;;;28.70;31.90;;;;;;5095891;28;20473;-68
2023/06/18 10:17:25;;;;;;;7.10;6.40;;;28.80;30.80;;;;;;5114298;28;20437;-68
2023/06/18 10:20:00;;;;;;;8.70;6.60;;;28.90;30.00;;;;;;5100867;28;20783;-68
2023/06/18 10:22:32;;;;;;;6.90;5.87;;;29.00;30.20;;;;;;5095844;28;20462;-68
2023/06/18 10:25:04;;;;;;;8.30;5.97;;;29.10;29.70;;;;;;5096202;28;20521;-67
2023/06/18 10:27:34;;;;;;;7.33;5.37;;;29.10;29.80;;;;;;5095718;28;20435;-67
2023/06/18 10:30:01;;;;;;;6.60;5.50;;;29.20;29.10;;;;;;5103692;28;20459;-67
2023/06/18 10:32:30;;;;;;;7.30;4.87;;;29.40;30.50;;;;;;5112084;28;20435;-68
2023/06/18 10:35:01;;;;;;;7.83;6.90;;;29.50;30.00;;;;;;5115954;28;21079;-68
2023/06/18 10:37:34;;;;;;;8.03;6.20;;;29.70;29.80;;;;;;5116462;28;20426;-67
2023/06/18 10:40:02;;;;;;;6.20;5.50;;;29.80;29.90;;;;;;5115984;28;20458;-68
2023/06/18 10:42:32;;;;;;;6.70;5.80;;;29.90;29.20;;;;;;5098987;28;20497;-68
2023/06/18 10:45:16;;;;;;;7.90;5.50;;;29.90;28.50;;;;;;5095209;28;20940;-74
2023/06/18 10:47:43;;;;;;;8.77;6.03;;;30.00;28.60;;;;;;5095807;28;20467;-68
2023/06/18 10:50:15;;;;;;;6.50;5.70;;;30.00;28.00;;;;;;5097374;28;20984;-68
2023/06/18 10:52:43;;;;;;;6.73;6.03;;;30.10;28.10;;;;;;5114277;28;20422;-69
2023/06/18 10:55:12;;;;;;;9.10;6.07;;;30.10;28.20;;;;;;5102132;28;20485;-73
2023/06/18 10:57:40;;;;;;;7.23;5.43;;;30.10;28.40;;;;;;5113582;28;20470;-68
2023/06/18 11:00:16;;;;;;;7.63;5.33;;;30.10;27.80;;;;;;5111400;28;20472;-68
2023/06/18 11:02:44;;;;;;;8.00;5.83;;;30.20;27.90;;;;;;5107698;28;20454;-68
2023/06/18 11:05:42;;;;;;;8.10;6.40;;;30.30;28.10;;;;;;5104541;28;20431;-68
2023/06/18 11:08:10;;;;;;;7.60;5.90;;;30.40;28.00;;;;;;5088838;28;20448;-67
2023/06/18 11:10:39;;;;;;;6.97;6.27;;;30.40;27.10;;;;;;5094707;28;20490;-68
2023/06/18 11:13:07;;;;;;;8.30;6.60;;;30.40;26.90;;;;;;5095087;28;20498;-68
2023/06/18 11:15:35;;;;;;;10.30;6.40;;;30.40;27.00;;;;;;5109405;28;20466;-68
2023/06/18 11:18:03;;;;;;;7.37;5.70;;;30.40;27.40;;;;;;5115251;28;20423;-67
2023/06/18 11:20:32;;;;;;;7.50;5.87;;;30.40;27.00;;;;;;5108222;28;20423;-70
2023/06/18 11:23:01;;;;;;;8.30;7.00;;;30.50;27.60;;;;;;5100953;28;20422;-67
2023/06/18 11:25:30;;;;;;;6.83;5.60;;;30.50;27.50;;;;;;5113484;28;20896;-68
2023/06/18 11:28:01;;;;;;;8.03;7.07;;;30.60;27.20;;;;;;5115052;28;20526;-68
2023/06/18 11:30:31;;;;;;;8.00;6.50;;;30.60;26.60;;;;;;5115013;28;20484;-67
2023/06/18 11:32:58;;;;;;;6.87;5.97;;;30.70;26.80;;;;;;5108562;28;20537;-68
2023/06/18 11:35:25;;;;;;;11.40;6.10;;;30.70;26.90;;;;;;5114815;28;20924;-67
2023/06/18 11:37:55;;;;;;;8.50;7.60;;;30.70;26.20;;;;;;5100375;28;20588;-68
2023/06/18 11:40:28;;;;;;;7.77;6.53;;;30.70;26.00;;;;;;5111897;28;20470;-69
2023/06/18 11:42:55;;;;;;;7.03;5.47;;;30.70;25.80;;;;;;5107550;28;20428;-68
2023/06/18 11:45:23;;;;;;;8.53;7.23;;;30.70;25.60;;;;;;5102399;28;20440;-70
2023/06/18 11:47:51;;;;;;;8.30;6.10;;;30.60;25.60;;;;;;5113261;28;21013;-68
2023/06/18 11:50:23;;;;;;;6.90;5.70;;;30.60;25.40;;;;;;5102430;28;20483;-68
2023/06/18 11:52:51;;;;;;;8.73;6.40;;;30.50;26.00;;;;;;5093938;28;20436;-67
2023/06/18 11:55:19;;;;;;;11.43;6.70;;;30.50;25.50;;;;;;5094812;28;20618;-68
2023/06/18 11:57:47;;;;;;;10.10;6.27;;;30.50;25.60;;;;;;5111155;28;20431;-68
2023/06/18 12:00:16;;;;;;;7.40;6.20;;;30.50;26.30;;;;;;5101318;28;20471;-68
2023/06/18 12:02:43;;;;;;;7.03;6.33;;;30.60;26.10;;;;;;5111186;28;20440;-69
2023/06/18 12:05:16;;;;;;;6.73;5.83;;;30.60;26.70;;;;;;5104383;28;20964;-68
2023/06/18 12:07:44;;;;;;;6.03;5.10;;;30.70;26.90;;;;;;5093386;28;20447;-68
2023/06/18 12:10:17;;;;;;;7.23;6.30;;;30.80;27.70;;;;;;5097446;28;20890;-69
2023/06/18 12:12:56;;;;;;;6.87;6.17;;;30.90;27.00;;;;;;5114124;28;20949;-68
2023/06/18 12:15:29;;;;;;;7.83;6.60;;;31.00;26.50;;;;;;5114081;28;20446;-69
2023/06/18 12:18:01;;;;;;;6.27;5.60;;;31.00;26.40;;;;;;5111527;28;20504;-67
2023/06/18 12:20:29;;;;;;;7.50;6.30;;;31.00;27.10;;;;;;5112883;28;20969;-74
2023/06/18 12:22:57;;;;;;;8.53;6.20;;;31.10;27.20;;;;;;5112777;28;20461;-72
2023/06/18 12:25:27;;;;;;;9.17;6.37;;;31.10;27.00;;;;;;5113666;28;20900;-68
2023/06/18 12:27:56;;;;;;;7.60;6.80;;;31.20;26.90;;;;;;5110373;28;20431;-67
2023/06/18 12:30:28;;;;;;;7.60;6.43;;;31.30;26.30;;;;;;5114016;28;20900;-69
2023/06/18 12:33:03;;;;;;;7.10;6.40;;;31.30;26.70;;;;;;5099228;28;20842;-67
2023/06/18 12:35:31;;;;;;;6.87;6.13;;;31.20;25.90;;;;;;5097250;28;20435;-68
2023/06/18 12:38:03;;;;;;;7.97;6.30;;;31.30;26.80;;;;;;5111926;28;20951;-69
2023/06/18 12:40:31;;;;;;;12.47;6.50;;;31.30;26.90;;;;;;5113743;28;20434;-68
2023/06/18 12:43:01;;;;;;;7.10;6.40;;;31.20;25.10;;;;;;5113636;28;20519;-68
2023/06/18 12:45:29;;;;;;;9.40;6.50;;;31.20;25.30;;;;;;5113474;28;20430;-67
2023/06/18 12:47:56;;;;;;;7.30;6.50;;;31.20;25.40;;;;;;5109808;28;20434;-68
2023/06/18 12:50:42;;;;;;;8.20;6.17;;;31.10;25.90;;;;;;5113768;28;20543;-67